< < Back
Terminal Aerodrome Forecast


Current Version              Previous Versions:   1  2  3  4  5  6  7  8  9  

Terminal Aerodrome Forecast

597
FTUS42 KCAE 200800 AAA
TAFCAE
TAF AMD
KCAE 200805Z 2008/2106 VRB03KT P6SM -RA OVC060
     FM201200 05003KT 6SM -RA BR BKN025
     FM202200 04003KT P6SM BKN025=



Latest METAR

241
SAUS80 KWBC 201400
MTRCAE
METAR KCAE 201356Z 07004KT 6SM -RA BR OVC060 08/06 A3022 RMK AO2 SLP232
P0001 T00830061


USA.gov is the U.S. government's official web portal to all federal, state and local government web resources and services.